Time;durP1;ratioP1;P1;durP2;ratioP2;P2;SDS_P1;SDS_P2;PMS_P1;PMS_P2;Temp;Humidity;BMP_temperature;BMP_pressure;BME280_temperature;BME280_humidity;BME280_pressure;Samples;Min_cycle;Max_cycle;Signal;HPM_P1;HPM_P2
2022/09/19 00:06:54;;;;;;;1.05;0.40;;;;;;;11.85;84.96;97958.87;18346995;32;20069;-61
2022/09/19 00:16:59;;;;;;;0.93;0.37;;;;;;;11.84;85.49;97955.34;18346601;32;20084;-61
2022/09/19 00:27:04;;;;;;;1.23;0.40;;;;;;;11.80;86.78;97956.97;18468647;32;20087;-61
2022/09/19 00:37:06;;;;;;;2.75;0.60;;;;;;;11.78;88.30;97956.44;18482289;32;20520;-61
2022/09/19 00:47:17;;;;;;;0.57;0.30;;;;;;;11.73;88.51;97956.44;18495980;32;20069;-61
2022/09/19 00:57:21;;;;;;;0.50;0.35;;;;;;;11.60;87.92;97959.69;18495514;32;20338;-61
2022/09/19 01:07:48;;;;;;;2.73;0.60;;;;;;;11.57;88.00;97962.94;18488772;32;20061;-61
2022/09/19 01:17:57;;;;;;;2.43;0.50;;;;;;;11.49;89.45;97970.47;18481224;32;20068;-61
2022/09/19 01:28:20;;;;;;;6.77;0.60;;;;;;;11.35;88.65;97961.28;18498102;32;20057;-61
2022/09/19 01:38:28;;;;;;;1.47;0.60;;;;;;;11.16;88.05;97959.03;18506865;32;20183;-61
2022/09/19 01:48:35;;;;;;;2.30;0.70;;;;;;;10.95;88.37;97970.88;18479532;32;20437;-61
2022/09/19 01:59:05;;;;;;;4.20;0.53;;;;;;;10.74;89.04;97970.00;18505469;32;20056;-61
2022/09/19 02:09:52;;;;;;;1.20;0.60;;;;;;;10.67;90.47;97976.47;18478173;32;20111;-62
2022/09/19 02:20:07;;;;;;;1.57;0.60;;;;;;;10.66;90.20;97964.03;18505032;32;20058;-61
2022/09/19 02:30:10;;;;;;;1.70;0.63;;;;;;;10.67;91.78;97967.53;18504001;32;20092;-61
2022/09/19 02:40:29;;;;;;;2.03;0.53;;;;;;;10.72;92.67;97969.47;18502895;32;20096;-61
2022/09/19 02:50:43;;;;;;;2.50;0.57;;;;;;;10.79;93.32;97973.53;18502956;32;20421;-61
2022/09/19 03:00:51;;;;;;;2.50;0.77;;;;;;;10.83;92.98;97974.63;18501965;32;20041;-61
2022/09/19 03:10:58;;;;;;;1.77;0.60;;;;;;;10.84;93.27;97970.84;18501583;32;20049;-61
2022/09/19 03:21:03;;;;;;;1.53;0.43;;;;;;;10.85;93.94;97986.00;18501231;32;20394;-61
2022/09/19 03:31:07;;;;;;;3.47;0.43;;;;;;;10.90;94.69;97987.13;18362211;32;20123;-61
2022/09/19 03:41:11;;;;;;;3.43;0.60;;;;;;;10.89;93.71;97988.19;18361567;32;20065;-61
2022/09/19 03:51:16;;;;;;;3.60;0.50;;;;;;;10.87;94.14;97993.03;18360440;32;20149;-61
2022/09/19 04:01:18;;;;;;;2.12;0.37;;;;;;;10.88;95.01;97994.66;18470049;32;20115;-61
2022/09/19 04:11:22;;;;;;;0.50;0.30;;;;;;;10.83;94.59;98009.00;18497962;32;20441;-61
2022/09/19 04:21:25;;;;;;;1.57;0.40;;;;;;;10.80;94.08;98002.22;18497260;32;20061;-61
2022/09/19 04:31:38;;;;;;;1.63;0.50;;;;;;;10.81;93.90;98011.97;18496768;32;20075;-61
2022/09/19 04:41:40;;;;;;;0.60;0.30;;;;;;;10.81;95.54;98024.66;18489628;32;20049;-61
2022/09/19 04:51:44;;;;;;;0.53;0.30;;;;;;;10.76;94.28;98020.03;18468947;32;20073;-61
2022/09/19 05:01:47;;;;;;;0.90;0.40;;;;;;;10.76;95.07;98030.06;18498361;32;20075;-61
2022/09/19 05:11:49;;;;;;;0.67;0.40;;;;;;;10.78;97.21;98044.13;18508571;32;20081;-61
2022/09/19 05:21:52;;;;;;;2.13;0.40;;;;;;;10.76;95.67;98062.53;18494075;32;20053;-61
2022/09/19 05:32:00;;;;;;;0.70;0.30;;;;;;;10.75;97.56;98067.09;18507477;32;20439;-61
2022/09/19 05:42:03;;;;;;;0.60;0.23;;;;;;;10.74;99.64;98075.47;18492808;32;20075;-61
2022/09/19 06:02:27;;;;;;;0.80;0.40;;;;;;;10.75;100.00;98086.03;18505364;32;20057;-61
2022/09/19 06:12:32;;;;;;;1.23;0.55;;;;;;;10.85;99.27;98091.53;18504375;32;20072;-61
2022/09/19 06:22:35;;;;;;;0.50;0.23;;;;;;;11.09;100.00;98096.50;18490597;32;20084;-61
2022/09/19 06:32:39;;;;;;;0.53;0.20;;;;;;;11.07;94.96;98112.19;18497247;32;20053;-61
2022/09/19 06:42:49;;;;;;;0.87;0.50;;;;;;;11.19;94.96;98118.19;18503342;32;20457;-61
2022/09/19 06:52:55;;;;;;;1.20;0.60;;;;;;;11.31;87.17;98115.28;18502477;32;20067;-61
2022/09/19 07:03:01;;;;;;;1.75;0.47;;;;;;;11.29;87.29;98124.75;18501902;32;20049;-61
2022/09/19 07:13:13;;;;;;;0.70;0.40;;;;;;;11.43;89.03;98136.75;18487968;32;20068;-61
2022/09/19 07:23:20;;;;;;;1.37;0.50;;;;;;;11.48;87.01;98158.44;18495276;32;20170;-61
2022/09/19 07:33:35;;;;;;;0.55;0.50;;;;;;;11.59;85.87;98167.41;18500073;32;20057;-61
2022/09/19 07:44:03;;;;;;;1.17;0.50;;;;;;;11.76;85.61;98172.63;18489727;32;20040;-61
2022/09/19 07:54:07;;;;;;;2.42;0.52;;;;;;;11.97;84.71;98189.00;18424668;32;20500;-61
2022/09/19 08:04:11;;;;;;;1.80;0.40;;;;;;;11.92;76.49;98197.06;18424078;32;20103;-61
2022/09/19 08:14:15;;;;;;;2.60;0.30;;;;;;;11.83;71.02;98205.69;18411037;32;20077;-61
2022/09/19 08:24:22;;;;;;;3.15;0.50;;;;;;;12.17;72.95;98209.94;18411842;32;20084;-61
2022/09/19 08:34:29;;;;;;;3.05;0.50;;;;;;;12.24;71.01;98218.63;18430782;32;20089;-62
2022/09/19 08:44:34;;;;;;;;;;;;;;;12.75;71.32;98236.88;18431769;32;20053;-61
2022/09/19 08:54:52;;;;;;;2.33;0.30;;;;;;;13.44;63.92;98231.97;18431650;32;19944;-61
2022/09/19 09:05:00;;;;;;;1.80;0.40;;;;;;;13.19;59.40;98224.66;18430976;32;20076;-61
2022/09/19 09:15:20;;;;;;;1.33;0.43;;;;;;;12.91;56.18;98234.16;18430204;32;20100;-61
2022/09/19 09:26:00;;;;;;;6.13;0.53;;;;;;;13.44;57.66;98221.09;18430494;32;20057;-62
2022/09/19 09:36:23;;;;;;;1.65;0.32;;;;;;;13.94;59.45;98228.56;18429868;32;20057;-61
2022/09/19 09:46:50;;;;;;;1.95;0.60;;;;;;;13.99;55.95;98221.22;18429679;32;20141;-61
2022/09/19 09:56:59;;;;;;;1.50;0.57;;;;;;;14.14;53.68;98223.03;18441680;32;20045;-61
2022/09/19 10:07:21;;;;;;;5.45;0.50;;;;;;;14.39;54.60;98219.34;18427142;32;20079;-61
2022/09/19 10:17:33;;;;;;;2.00;0.50;;;;;;;14.58;54.64;98215.97;18440410;32;20053;-61
2022/09/19 10:27:41;;;;;;;3.28;0.32;;;;;;;14.74;55.96;98213.97;18426258;32;20452;-61
2022/09/19 10:37:58;;;;;;;3.95;0.60;;;;;;;14.69;53.62;98209.41;18439109;32;20053;-61
2022/09/19 10:48:29;;;;;;;0.50;0.30;;;;;;;14.72;52.79;98205.28;18424550;32;20481;-61
2022/09/19 10:58:41;;;;;;;1.25;0.15;;;;;;;14.67;52.05;98202.59;18437100;32;20097;-61
2022/09/19 11:08:52;;;;;;;2.03;0.52;;;;;;;14.83;53.45;98204.13;18437193;32;20057;-61
2022/09/19 11:19:26;;;;;;;1.45;0.40;;;;;;;15.07;49.21;98195.19;18437040;32;20068;-61
2022/09/19 11:29:51;;;;;;;2.28;0.40;;;;;;;15.51;50.32;98202.41;18435814;32;20066;-61
2022/09/19 11:40:28;;;;;;;1.20;0.40;;;;;;;15.54;44.86;98199.09;18435873;32;20154;-61
2022/09/19 11:50:59;;;;;;;1.42;0.35;;;;;;;16.12;49.09;98200.03;18434600;32;20045;-61
2022/09/19 12:01:25;;;;;;;2.65;0.62;;;;;;;16.62;50.93;98191.41;18433723;32;20501;-62
2022/09/19 12:11:49;;;;;;;2.95;0.55;;;;;;;16.55;42.06;98186.34;18432793;32;20350;-61
2022/09/19 12:21:58;;;;;;;0.87;0.30;;;;;;;17.25;43.29;98187.41;18432832;32;20504;-61
2022/09/19 12:32:14;;;;;;;2.85;0.45;;;;;;;17.67;44.42;98179.22;18432469;32;20068;-61
2022/09/19 12:42:44;;;;;;;2.53;0.20;;;;;;;17.99;43.98;98160.25;18431513;32;20467;-61
2022/09/19 12:53:31;;;;;;;5.25;0.70;;;;;;;17.91;43.81;98150.81;18416995;32;20053;-60
2022/09/19 13:03:44;;;;;;;1.33;0.30;;;;;;;18.60;44.16;98139.69;18230515;32;20122;-61
2022/09/19 13:13:53;;;;;;;1.65;0.50;;;;;;;18.79;40.11;98135.97;18105748;32;20191;-61
2022/09/19 13:23:58;;;;;;;1.87;0.40;;;;;;;18.98;39.57;98137.69;18109919;32;20093;-61
2022/09/19 13:34:21;;;;;;;1.80;0.28;;;;;;;18.59;40.14;98129.84;18258094;32;20122;-61
2022/09/19 13:45:01;;;;;;;5.53;1.95;;;;;;;17.70;42.51;98123.91;18318758;32;20098;-61
2022/09/19 13:55:14;;;;;;;1.23;0.35;;;;;;;17.72;45.34;98121.69;18427527;32;20057;-61
2022/09/19 14:05:21;;;;;;;3.12;0.30;;;;;;;18.52;39.47;98121.28;18441069;32;20061;-60
2022/09/19 14:15:41;;;;;;;2.42;0.50;;;;;;;18.42;36.95;98114.12;18440308;32;20105;-61
2022/09/19 14:26:00;;;;;;;1.73;0.50;;;;;;;18.40;43.67;98112.81;18413151;32;20076;-61
2022/09/19 14:36:34;;;;;;;1.23;0.40;;;;;;;18.12;38.12;98107.44;18438522;32;20087;-61
2022/09/19 14:46:46;;;;;;;2.60;0.40;;;;;;;17.59;46.48;98111.56;18438720;32;20062;-61
2022/09/19 14:57:02;;;;;;;1.65;0.30;;;;;;;17.21;44.46;98114.50;18437868;32;20119;-61
2022/09/19 15:07:05;;;;;;;3.50;0.50;;;;;;;17.32;47.40;98101.44;18424034;32;20446;-61
2022/09/19 15:17:15;;;;;;;1.60;0.20;;;;;;;16.82;46.08;98096.63;18299938;32;20111;-60
2022/09/19 15:27:22;;;;;;;1.90;0.47;;;;;;;16.39;44.18;98103.87;18299051;32;20073;-61
2022/09/19 15:37:30;;;;;;;1.77;0.30;;;;;;;16.13;48.74;98100.75;18299327;32;20490;-61
2022/09/19 15:47:33;;;;;;;2.25;0.50;;;;;;;15.88;46.89;98104.63;18320951;32;20093;-61
2022/09/19 15:57:51;;;;;;;4.15;0.45;;;;;;;15.63;47.52;98106.56;18434020;32;20061;-60
2022/09/19 16:18:19;;;;;;;1.87;0.35;;;;;;;15.16;47.78;98100.84;18433284;32;20057;-60
2022/09/19 16:28:36;;;;;;;2.67;0.53;;;;;;;15.05;48.74;98105.59;18405369;32;20069;-60
2022/09/19 16:39:00;;;;;;;2.40;0.73;;;;;;;14.89;50.82;98110.37;18432374;32;20045;-60
2022/09/19 16:49:03;;;;;;;3.43;0.67;;;;;;;14.63;51.04;98100.84;18218352;32;20575;-60
2022/09/19 16:59:13;;;;;;;4.95;2.28;;;;;;;14.34;52.96;98102.41;18230606;32;20077;-60
2022/09/19 17:09:16;;;;;;;2.00;0.70;;;;;;;14.07;58.17;98111.03;18230443;32;20063;-61
2022/09/19 17:19:19;;;;;;;2.03;0.55;;;;;;;13.62;59.70;98116.47;18256869;32;20071;-60
2022/09/19 17:29:21;;;;;;;0.70;0.25;;;;;;;13.37;62.77;98133.66;18430032;32;20049;-60
2022/09/19 17:39:24;;;;;;;1.50;0.30;;;;;;;12.82;70.74;98145.12;18416117;32;20091;-60
2022/09/19 17:49:26;;;;;;;0.93;0.32;;;;;;;12.35;72.88;98138.91;18402876;32;20080;-61
2022/09/19 17:59:29;;;;;;;3.20;0.50;;;;;;;11.86;75.01;98144.75;18403334;32;20071;-60
2022/09/19 18:09:32;;;;;;;1.70;0.37;;;;;;;11.43;77.19;98153.00;18404928;32;20479;-60
2022/09/19 18:19:35;;;;;;;0.93;0.30;;;;;;;11.04;79.36;98158.72;18302930;32;20074;-60
2022/09/19 18:29:38;;;;;;;1.60;0.40;;;;;;;10.74;80.94;98172.84;18303208;32;20092;-61
2022/09/19 18:39:41;;;;;;;1.43;0.33;;;;;;;10.44;82.24;98177.75;18302163;32;20295;-60
2022/09/19 18:49:44;;;;;;;2.77;0.47;;;;;;;10.16;83.44;98185.00;18321256;32;20112;-60
2022/09/19 18:59:46;;;;;;;2.87;0.40;;;;;;;9.94;85.19;98195.03;18423850;32;20141;-60
2022/09/19 19:09:49;;;;;;;1.83;0.50;;;;;;;9.72;85.21;98209.37;18423564;32;20049;-60
2022/09/19 19:19:51;;;;;;;0.83;0.30;;;;;;;9.50;86.25;98215.56;18422588;32;20065;-60
2022/09/19 19:29:54;;;;;;;4.13;1.10;;;;;;;9.27;87.29;98207.69;18436108;32;20058;-60
2022/09/19 19:39:56;;;;;;;2.10;0.70;;;;;;;9.10;88.17;98216.63;18435638;32;20128;-60
2022/09/19 19:49:59;;;;;;;1.20;0.47;;;;;;;8.93;89.57;98221.22;18420833;32;20429;-60
2022/09/19 20:00:02;;;;;;;2.90;0.73;;;;;;;8.77;91.24;98229.06;18434135;32;20073;-60
2022/09/19 20:10:06;;;;;;;5.87;1.40;;;;;;;8.68;92.81;98230.50;18434049;32;20068;-60
2022/09/19 20:20:09;;;;;;;2.83;1.27;;;;;;;8.62;94.30;98226.91;18433376;32;20498;-60
2022/09/19 20:30:11;;;;;;;1.97;0.90;;;;;;;8.44;94.17;98225.22;18432232;32;20106;-60
2022/09/19 20:40:14;;;;;;;4.10;1.60;;;;;;;8.34;94.29;98226.91;18418295;32;20049;-60
2022/09/19 20:50:18;;;;;;;3.60;1.13;;;;;;;8.21;94.85;98236.09;18417760;32;20374;-60
2022/09/19 21:00:21;;;;;;;1.47;0.83;;;;;;;8.07;95.78;98241.78;18417562;32;20120;-60
2022/09/19 21:10:24;;;;;;;2.20;0.93;;;;;;;8.08;97.02;98240.72;18430739;32;20053;-60
2022/09/19 21:20:27;;;;;;;3.40;0.80;;;;;;;7.98;97.31;98240.53;18430777;32;20057;-60
2022/09/19 21:30:30;;;;;;;2.57;0.60;;;;;;;7.92;98.24;98238.78;18430320;32;20497;-60
2022/09/19 21:40:32;;;;;;;1.43;0.60;;;;;;;7.89;98.55;98239.25;18403248;32;20053;-60
2022/09/19 21:50:35;;;;;;;4.83;0.83;;;;;;;7.98;99.25;98248.59;18427275;32;20053;-60
2022/09/19 22:00:38;;;;;;;5.30;0.77;;;;;;;8.09;100.00;98247.75;18441373;32;20101;-60
2022/09/19 22:10:40;;;;;;;1.20;0.50;;;;;;;8.13;100.00;98254.28;18441206;32;20053;-60
2022/09/19 22:20:43;;;;;;;1.47;0.50;;;;;;;8.25;100.00;98261.50;18440534;32;20054;-60
2022/09/19 22:30:45;;;;;;;3.43;0.70;;;;;;;8.30;100.00;98261.59;18426259;32;20061;-60
2022/09/19 22:40:47;;;;;;;1.93;0.60;;;;;;;8.20;100.00;98251.44;18425330;32;20075;-60
2022/09/19 22:50:50;;;;;;;6.70;0.77;;;;;;;8.03;100.00;98256.78;18438936;32;20120;-60
2022/09/19 23:00:52;;;;;;;1.70;0.57;;;;;;;7.90;100.00;98251.66;18437301;32;20049;-60
2022/09/19 23:11:03;;;;;;;1.70;0.50;;;;;;;7.75;100.00;98258.34;18437673;32;20057;-60
2022/09/19 23:21:06;;;;;;;1.43;0.53;;;;;;;7.59;100.00;98256.41;18436959;32;20070;-60
2022/09/19 23:31:10;;;;;;;2.27;0.63;;;;;;;7.44;100.00;98254.19;18210266;32;20066;-60
2022/09/19 23:41:14;;;;;;;1.03;0.50;;;;;;;7.37;100.00;98246.25;18234500;32;20070;-60
2022/09/19 23:51:21;;;;;;;2.17;0.77;;;;;;;7.22;100.00;98237.81;18233659;32;20113;-60
